Time;durP1;ratioP1;P1;durP2;ratioP2;P2;SDS_P1;SDS_P2;PMS_P1;PMS_P2;Temp;Humidity;BMP_temperature;BMP_pressure;BME280_temperature;BME280_humidity;BME280_pressure;Samples;Min_cycle;Max_cycle;Signal;HPM_P1;HPM_P2
2023/10/28 00:01:30;;;;;;;;;;;;;;;15.37;93.78;98977.69;5130548;27;20023;-82
2023/10/28 00:03:57;;;;;;;;;;;;;;;15.44;93.13;98980.06;5130194;27;19926;-82
2023/10/28 00:06:22;;;;;;;;;;;;;;;15.53;92.49;98980.28;5128467;27;19923;-83
2023/10/28 00:08:47;;;;;;;;;;;;;;;15.51;93.32;98979.75;5128602;27;19915;-83
2023/10/28 00:11:13;;;;;;;;;;;;;;;15.61;92.02;98983.19;5121566;27;19926;-83
2023/10/28 00:13:39;;;;;;;;;;;;;;;15.63;92.22;98991.78;5124873;27;20441;-82
2023/10/28 00:16:05;;;;;;;;;;;;;;;15.25;94.03;98979.91;5114134;27;19916;-83
2023/10/28 00:18:31;;;;;;;;;;;;;;;14.90;96.86;98978.97;5111324;28;20609;-82
2023/10/28 00:20:57;;;;;;;;;;;;;;;14.87;96.93;98987.56;5112975;27;19923;-83
2023/10/28 00:23:22;;;;;;;;;;;;;;;14.72;97.87;98988.41;5122146;27;19915;-82
2023/10/28 00:25:47;;;;;;;;;;;;;;;14.71;98.31;98992.19;5122405;27;19981;-82
2023/10/28 00:28:13;;;;;;;;;;;;;;;14.95;96.37;98978.13;5111380;27;19916;-83
2023/10/28 00:30:39;;;;;;;;;;;;;;;14.80;97.88;98979.81;5119711;27;19953;-82
2023/10/28 00:33:04;;;;;;;;;;;;;;;14.82;97.37;98974.16;5118466;27;20358;-83
2023/10/28 00:35:30;;;;;;;;;;;;;;;14.55;99.07;98955.72;5126818;27;19922;-84
2023/10/28 00:37:55;;;;;;;;;;;;;;;14.65;97.67;98966.44;5117416;27;19916;-84
2023/10/28 00:40:24;;;;;;;;;;;;;;;14.42;99.74;98967.78;5132718;27;20447;-84
2023/10/28 00:42:49;;;;;;;;;;;;;;;14.26;100.00;98975.03;5117637;27;19957;-84
2023/10/28 00:45:15;;;;;;;;;;;;;;;14.66;98.35;98978.75;5129776;27;19919;-84
2023/10/28 00:47:43;;;;;;;;;;;;;;;14.88;95.26;98978.44;5115799;27;20526;-83
2023/10/28 00:50:10;;;;;;;;;;;;;;;14.74;95.63;98966.69;5120001;27;19989;-81
2023/10/28 00:52:41;;;;;;;;;;;;;;;14.90;95.97;98978.19;5119041;27;19980;-82
2023/10/28 00:55:10;;;;;;;;;;;;;;;14.94;95.46;98982.72;5127853;27;20320;-84
2023/10/28 00:57:36;;;;;;;;;;;;;;;15.00;95.17;98984.31;5117763;27;19915;-84
2023/10/28 01:00:02;;;;;;;;;;;;;;;14.38;98.91;98980.91;5111471;28;20380;-86
2023/10/28 01:02:27;;;;;;;;;;;;;;;14.24;99.76;98986.06;5124181;27;19922;-84
2023/10/28 01:04:53;;;;;;;;;;;;;;;13.95;100.00;98990.31;5130806;27;19976;-86
2023/10/28 01:07:19;;;;;;;;;;;;;;;13.78;100.00;98990.59;5114632;27;19919;-83
2023/10/28 01:09:47;;;;;;;;;;;;;;;14.00;100.00;98993.81;5132042;27;19915;-84
2023/10/28 01:12:14;;;;;;;;;;;;;;;14.44;98.36;99006.69;5132247;27;20002;-84
2023/10/28 01:14:40;;;;;;;;;;;;;;;14.55;97.74;99004.00;5127485;27;19911;-84
2023/10/28 01:17:05;;;;;;;;;;;;;;;14.75;96.72;99005.84;5119709;27;19972;-83
2023/10/28 01:19:31;;;;;;;;;;;;;;;14.83;96.39;99016.84;5111015;27;19912;-84
2023/10/28 01:21:56;;;;;;;;;;;;;;;14.76;96.59;99021.69;5122730;27;19915;-84
2023/10/28 01:24:21;;;;;;;;;;;;;;;14.76;96.92;99016.31;5120823;27;19911;-83
2023/10/28 01:26:47;;;;;;;;;;;;;;;14.44;99.55;99025.47;5129570;27;20002;-85
2023/10/28 01:29:12;;;;;;;;;;;;;;;14.75;97.32;99020.09;5115412;27;19915;-83
2023/10/28 01:31:37;;;;;;;;;;;;;;;14.40;99.44;99024.38;5105672;27;19915;-84
2023/10/28 01:34:03;;;;;;;;;;;;;;;14.20;100.00;99017.16;5125009;27;19924;-84
2023/10/28 01:36:29;;;;;;;;;;;;;;;14.20;100.00;99021.69;5110891;28;19922;-86
2023/10/28 01:38:54;;;;;;;;;;;;;;;14.00;100.00;99022.50;5116422;27;19919;-84
2023/10/28 01:41:19;;;;;;;;;;;;;;;14.14;100.00;99020.09;5119751;27;19915;-83
2023/10/28 01:43:46;;;;;;;;;;;;;;;13.81;100.00;99016.84;5110832;28;19916;-83
2023/10/28 01:46:11;;;;;;;;;;;;;;;13.73;100.00;99028.91;5127588;27;19962;-84
2023/10/28 01:48:36;;;;;;;;;;;;;;;13.69;100.00;99030.50;5114308;27;19958;-84
2023/10/28 01:51:02;;;;;;;;;;;;;;;13.92;100.00;99029.19;5118337;27;20394;-84
2023/10/28 01:53:27;;;;;;;;;;;;;;;14.23;100.00;99029.22;5116060;27;19959;-84
2023/10/28 01:55:52;;;;;;;;;;;;;;;14.35;98.87;99037.78;5126217;27;19968;-83
2023/10/28 01:58:17;;;;;;;;;;;;;;;13.78;100.00;99030.78;5114327;27;19923;-83
2023/10/28 02:00:43;;;;;;;;;;;;;;;13.61;100.00;99029.13;5128084;27;19922;-84
2023/10/28 02:03:11;;;;;;;;;;;;;;;13.69;100.00;99029.69;5110186;28;19912;-84
2023/10/28 02:05:37;;;;;;;;;;;;;;;13.66;100.00;99034.50;5109604;28;19959;-84
2023/10/28 02:08:03;;;;;;;;;;;;;;;13.69;100.00;99035.03;5108662;28;19947;-84
2023/10/28 02:10:28;;;;;;;;;;;;;;;14.07;100.00;99025.72;5124695;27;20680;-83
2023/10/28 02:12:54;;;;;;;;;;;;;;;14.35;97.58;99037.78;5111663;28;19919;-84
2023/10/28 02:15:19;;;;;;;;;;;;;;;14.27;97.73;99046.38;5111486;28;19912;-84
2023/10/28 02:17:45;;;;;;;;;;;;;;;14.16;99.40;99050.13;5120409;28;20041;-83
2023/10/28 02:20:10;;;;;;;;;;;;;;;13.68;100.00;99044.16;5115284;28;19977;-84
2023/10/28 02:22:36;;;;;;;;;;;;;;;13.45;100.00;99035.53;5111232;28;19920;-84
2023/10/28 02:25:01;;;;;;;;;;;;;;;13.82;100.00;99050.63;5118330;27;19938;-84
2023/10/28 02:27:27;;;;;;;;;;;;;;;13.94;99.58;99058.41;5124025;28;20287;-84
2023/10/28 02:29:52;;;;;;;;;;;;;;;14.18;98.54;99064.06;5123088;28;19985;-84
2023/10/28 02:32:17;;;;;;;;;;;;;;;14.24;98.19;99057.63;5123775;28;19975;-84
2023/10/28 02:34:43;;;;;;;;;;;;;;;14.35;97.45;99059.25;5110106;28;20861;-86
2023/10/28 02:37:08;;;;;;;;;;;;;;;14.49;96.96;99064.09;5109583;28;19965;-84
2023/10/28 02:39:33;;;;;;;;;;;;;;;14.35;97.85;99064.63;5117703;28;20010;-84
2023/10/28 02:42:00;;;;;;;;;;;;;;;14.23;99.44;99064.06;5120476;28;20141;-85
2023/10/28 02:44:26;;;;;;;;;;;;;;;14.44;98.54;99063.03;5109247;28;19922;-85
2023/10/28 02:46:56;;;;;;;;;;;;;;;14.55;97.78;99065.69;5129780;28;19921;-84
2023/10/28 02:49:21;;;;;;;;;;;;;;;14.31;98.79;99060.06;5114834;28;19915;-84
2023/10/28 02:51:46;;;;;;;;;;;;;;;14.22;100.00;99059.78;5110511;28;19912;-84
2023/10/28 02:54:13;;;;;;;;;;;;;;;14.44;98.46;99062.19;5121588;28;20423;-84
2023/10/28 02:56:38;;;;;;;;;;;;;;;14.49;98.94;99069.47;5118771;28;19927;-84
2023/10/28 02:59:07;;;;;;;;;;;;;;;13.96;100.00;99065.13;5110775;28;19915;-86
2023/10/28 03:01:36;;;;;;;;;;;;;;;13.84;100.00;99064.56;5126654;28;20433;-84
2023/10/28 03:04:02;;;;;;;;;;;;;;;13.61;100.00;99074.69;5106056;28;19923;-84
2023/10/28 03:06:29;;;;;;;;;;;;;;;13.62;100.00;99078.16;5103462;28;20002;-84
2023/10/28 03:08:55;;;;;;;;;;;;;;;14.01;100.00;99075.84;5109024;28;20311;-84
2023/10/28 03:11:20;;;;;;;;;;;;;;;14.23;99.81;99072.13;5124701;28;19916;-84
2023/10/28 03:13:46;;;;;;;;;;;;;;;14.39;98.56;99075.63;5109780;28;20003;-84
2023/10/28 03:16:11;;;;;;;;;;;;;;;14.33;98.41;99082.84;5126670;27;19922;-84
2023/10/28 03:18:37;;;;;;;;;;;;;;;14.15;100.00;99078.00;5120329;28;19916;-83
2023/10/28 03:21:02;;;;;;;;;;;;;;;14.07;100.00;99074.78;5118254;28;19923;-84
2023/10/28 03:23:28;;;;;;;;;;;;;;;14.08;100.00;99075.59;5128086;27;19923;-83
2023/10/28 03:25:53;;;;;;;;;;;;;;;14.24;99.80;99073.72;5116003;27;19912;-84
2023/10/28 03:28:19;;;;;;;;;;;;;;;14.35;98.50;99080.72;5128728;27;20350;-85
2023/10/28 03:30:44;;;;;;;;;;;;;;;14.36;98.48;99085.00;5114382;28;19947;-85
2023/10/28 03:33:09;;;;;;;;;;;;;;;14.43;98.25;99085.53;5112488;28;19919;-84
2023/10/28 03:35:34;;;;;;;;;;;;;;;14.34;97.60;99084.44;5133677;27;19923;-84
2023/10/28 03:38:00;;;;;;;;;;;;;;;13.98;100.00;99097.81;5114802;27;19916;-85
2023/10/28 03:40:25;;;;;;;;;;;;;;;14.10;100.00;99097.59;5109771;28;20347;-84
2023/10/28 03:42:51;;;;;;;;;;;;;;;14.18;98.75;99107.78;5100440;28;19915;-85
2023/10/28 03:45:16;;;;;;;;;;;;;;;14.17;98.39;99105.38;5127464;27;19915;-83
2023/10/28 03:47:41;;;;;;;;;;;;;;;14.20;98.40;99104.81;5117513;27;19926;-84
2023/10/28 03:50:07;;;;;;;;;;;;;;;14.15;98.32;99102.16;5117402;27;19922;-84
2023/10/28 03:52:32;;;;;;;;;;;;;;;14.20;97.98;99099.47;5116543;27;20431;-83
2023/10/28 03:55:01;;;;;;;;;;;;;;;13.56;100.00;99098.75;5132633;27;20002;-85
2023/10/28 03:57:29;;;;;;;;;;;;;;;13.34;100.00;99100.81;5116898;27;19923;-83
2023/10/28 03:59:55;;;;;;;;;;;;;;;13.04;100.00;99104.91;5112906;28;19915;-84
2023/10/28 04:02:20;;;;;;;;;;;;;;;13.19;100.00;99099.63;5127259;27;19922;-83
2023/10/28 04:04:45;;;;;;;;;;;;;;;13.53;100.00;99112.69;5110499;27;19923;-83
2023/10/28 04:07:11;;;;;;;;;;;;;;;13.44;100.00;99108.88;5109280;27;20497;-83
2023/10/28 04:09:37;;;;;;;;;;;;;;;13.09;100.00;99110.28;5113649;28;19915;-84
2023/10/28 04:12:05;;;;;;;;;;;;;;;13.49;100.00;99116.16;5112737;27;19922;-84
2023/10/28 04:14:30;;;;;;;;;;;;;;;13.59;100.00;99117.00;5128523;27;19924;-84
2023/10/28 04:16:56;;;;;;;;;;;;;;;13.69;100.00;99110.06;5121729;27;19972;-84
2023/10/28 04:19:21;;;;;;;;;;;;;;;13.54;100.00;99114.28;5125756;27;19915;-84
2023/10/28 04:21:46;;;;;;;;;;;;;;;13.08;100.00;99111.34;5115042;27;19972;-84
2023/10/28 04:24:12;;;;;;;;;;;;;;;13.05;100.00;99117.22;5127451;27;19915;-85
2023/10/28 04:26:40;;;;;;;;;;;;;;;13.40;100.00;99123.88;5115305;27;19965;-84
2023/10/28 04:29:05;;;;;;;;;;;;;;;13.12;100.00;99120.47;5116737;27;20097;-84
2023/10/28 04:31:31;;;;;;;;;;;;;;;13.49;100.00;99127.66;5120658;27;20354;-84
2023/10/28 04:33:56;;;;;;;;;;;;;;;13.70;100.00;99117.84;5127893;27;19912;-84
2023/10/28 04:36:21;;;;;;;;;;;;;;;13.69;99.72;99126.13;5126710;27;19916;-84
2023/10/28 04:38:47;;;;;;;;;;;;;;;13.36;100.00;99133.47;5104838;28;19916;-84
2023/10/28 04:41:12;;;;;;;;;;;;;;;13.32;100.00;99145.78;5114961;27;19919;-84
2023/10/28 04:43:39;;;;;;;;;;;;;;;13.49;100.00;99150.97;5124583;27;19919;-85
2023/10/28 04:46:04;;;;;;;;;;;;;;;13.59;99.90;99159.06;5122770;27;20412;-84
2023/10/28 04:48:29;;;;;;;;;;;;;;;13.70;98.89;99149.19;5112120;27;19916;-83
2023/10/28 04:50:55;;;;;;;;;;;;;;;13.60;99.81;99158.78;5103674;27;19964;-84
2023/10/28 04:53:22;;;;;;;;;;;;;;;13.65;98.68;99169.53;5115309;27;19919;-84
2023/10/28 04:55:47;;;;;;;;;;;;;;;13.77;98.34;99165.81;5099792;28;20441;-85
2023/10/28 04:58:14;;;;;;;;;;;;;;;13.75;99.15;99167.94;5120965;27;19915;-83
2023/10/28 05:00:40;;;;;;;;;;;;;;;13.67;99.40;99177.31;5117720;27;19920;-85
2023/10/28 05:03:05;;;;;;;;;;;;;;;13.79;98.54;99174.41;5126236;27;19919;-84
2023/10/28 05:05:30;;;;;;;;;;;;;;;13.70;98.13;99178.66;5130622;27;20375;-86
2023/10/28 05:07:56;;;;;;;;;;;;;;;13.57;99.73;99171.91;5126808;27;19968;-84
2023/10/28 05:10:21;;;;;;;;;;;;;;;13.62;99.21;99180.75;5120588;27;20555;-84
2023/10/28 05:12:47;;;;;;;;;;;;;;;13.68;98.98;99189.63;5113463;27;19919;-84
2023/10/28 05:15:12;;;;;;;;;;;;;;;13.81;98.52;99196.38;5123732;27;19915;-84
2023/10/28 05:17:37;;;;;;;;;;;;;;;13.69;100.00;99201.16;5116669;27;20372;-84
2023/10/28 05:20:06;;;;;;;;;;;;;;;13.48;100.00;99184.97;5122939;27;19915;-84
2023/10/28 05:22:35;;;;;;;;;;;;;;;13.48;100.00;99187.66;5109863;27;19916;-86
2023/10/28 05:25:03;;;;;;;;;;;;;;;13.77;100.00;99209.53;5118135;27;19915;-84
2023/10/28 05:27:29;;;;;;;;;;;;;;;13.82;100.00;99212.22;5113626;27;19915;-85
2023/10/28 05:29:54;;;;;;;;;;;;;;;14.00;97.81;99219.00;5110449;27;20433;-84
2023/10/28 05:32:20;;;;;;;;;;;;;;;14.14;95.42;99229.22;5109489;28;19919;-85
2023/10/28 05:34:45;;;;;;;;;;;;;;;14.51;93.03;99217.56;5109695;28;19916;-84
2023/10/28 05:37:10;;;;;;;;;;;;;;;14.49;93.03;99219.69;5110321;27;19938;-83
2023/10/28 05:39:40;;;;;;;;;;;;;;;14.68;92.92;99234.22;5114104;27;19915;-84
2023/10/28 05:42:05;;;;;;;;;;;;;;;14.67;94.14;99235.31;5111460;27;19916;-84
2023/10/28 05:44:35;;;;;;;;;;;;;;;14.76;94.38;99241.75;5124777;27;19916;-83
2023/10/28 05:47:00;;;;;;;;;;;;;;;15.19;92.33;99249.56;5122654;27;19962;-83
2023/10/28 05:49:25;;;;;;;;;;;;;;;15.21;91.54;99248.22;5130859;27;19958;-84
2023/10/28 05:51:51;;;;;;;;;;;;;;;15.17;93.32;99247.16;5127250;27;19926;-85
2023/10/28 05:54:16;;;;;;;;;;;;;;;15.41;92.02;99252.78;5109179;28;19916;-84
2023/10/28 05:56:41;;;;;;;;;;;;;;;15.39;92.41;99254.13;5108985;28;20401;-84
2023/10/28 05:59:08;;;;;;;;;;;;;;;15.37;92.86;99261.66;5130355;27;19923;-84
2023/10/28 06:01:34;;;;;;;;;;;;;;;15.65;92.73;99268.31;5125102;27;19916;-84
2023/10/28 06:03:59;;;;;;;;;;;;;;;15.54;91.70;99278.28;5113817;27;19945;-84
2023/10/28 06:06:24;;;;;;;;;;;;;;;15.75;91.47;99273.72;5115928;27;19916;-83
2023/10/28 06:08:50;;;;;;;;;;;;;;;16.14;88.64;99289.22;5120808;27;19915;-84
2023/10/28 06:11:15;;;;;;;;;;;;;;;16.02;90.76;99277.94;5110755;28;19920;-84
2023/10/28 06:13:40;;;;;;;;;;;;;;;16.06;91.09;99279.81;5109900;28;19976;-85
2023/10/28 06:16:06;;;;;;;;;;;;;;;16.17;89.98;99282.47;5121743;28;19958;-85
2023/10/28 06:18:31;;;;;;;;;;;;;;;16.19;89.32;99283.78;5104660;28;19916;-84
2023/10/28 06:20:56;;;;;;;;;;;;;;;16.41;89.12;99285.34;5110948;28;19915;-83
2023/10/28 06:23:21;;;;;;;;;;;;;;;16.74;87.31;99299.94;5110367;28;19915;-83
2023/10/28 06:25:47;;;;;;;;;;;;;;;17.07;85.41;99305.69;5118779;28;19915;-84
2023/10/28 06:28:12;;;;;;;;;;;;;;;17.38;82.46;99302.75;5108174;28;19965;-84
2023/10/28 06:30:45;;;;;;;;;;;;;;;17.56;82.59;99306.66;5107972;28;20444;-83
2023/10/28 06:33:12;;;;;;;;;;;;;;;17.76;81.69;99314.56;5110095;28;19945;-83
2023/10/28 06:35:37;;;;;;;;;;;;;;;17.95;82.19;99311.97;5116810;28;19912;-84
2023/10/28 06:38:02;;;;;;;;;;;;;;;18.16;80.55;99312.53;5088190;28;20280;-85
2023/10/28 06:40:28;;;;;;;;;;;;;;;17.87;81.15;99324.16;5108879;28;20014;-84
2023/10/28 06:42:56;;;;;;;;;;;;;;;18.25;79.19;99320.81;5104202;28;19962;-85
2023/10/28 06:45:21;;;;;;;;;;;;;;;17.99;80.29;99337.28;5087727;28;20021;-84
2023/10/28 06:47:46;;;;;;;;;;;;;;;18.35;80.08;99331.50;5079713;28;20476;-84
2023/10/28 06:50:12;;;;;;;;;;;;;;;18.59;77.28;99339.56;5098192;28;19976;-84
2023/10/28 06:52:39;;;;;;;;;;;;;;;18.61;78.10;99344.66;5098443;28;19921;-84
2023/10/28 06:55:05;;;;;;;;;;;;;;;18.56;77.63;99352.84;5109818;28;19939;-84
2023/10/28 06:57:30;;;;;;;;;;;;;;;18.72;77.78;99356.16;5113183;28;19951;-83
2023/10/28 06:59:56;;;;;;;;;;;;;;;18.78;77.49;99353.09;5101275;28;19946;-83
2023/10/28 07:02:21;;;;;;;;;;;;;;;18.78;77.23;99355.78;5094101;28;19937;-84
2023/10/28 07:04:50;;;;;;;;;;;;;;;19.03;76.67;99356.56;5095082;28;19947;-84
2023/10/28 07:07:15;;;;;;;;;;;;;;;18.96;76.48;99353.41;5106541;28;19920;-84
2023/10/28 07:09:41;;;;;;;;;;;;;;;19.21;75.76;99361.16;5102421;28;19915;-84
2023/10/28 07:12:06;;;;;;;;;;;;;;;19.22;75.60;99354.66;5109646;28;20277;-84
2023/10/28 07:14:32;;;;;;;;;;;;;;;19.64;72.70;99363.72;5099647;28;19923;-85
2023/10/28 07:16:59;;;;;;;;;;;;;;;19.73;73.24;99368.50;5106735;28;19915;-82
2023/10/28 07:19:26;;;;;;;;;;;;;;;19.84;72.61;99362.63;5098409;28;19920;-84
2023/10/28 07:21:51;;;;;;;;;;;;;;;19.97;72.95;99368.34;5094232;28;20629;-85
2023/10/28 07:24:17;;;;;;;;;;;;;;;19.98;73.58;99370.75;5096582;28;19915;-86
2023/10/28 07:26:42;;;;;;;;;;;;;;;20.13;73.76;99366.16;5092308;28;19984;-84
2023/10/28 07:29:08;;;;;;;;;;;;;;;20.23;73.28;99365.97;5108162;28;19915;-85
2023/10/28 07:31:33;;;;;;;;;;;;;;;20.60;71.84;99364.19;5110859;27;20379;-84
2023/10/28 07:34:00;;;;;;;;;;;;;;;20.55;71.62;99358.84;5094416;28;19965;-84
2023/10/28 07:36:25;;;;;;;;;;;;;;;20.56;72.89;99358.53;5092242;28;19916;-84
2023/10/28 07:38:51;;;;;;;;;;;;;;;20.79;71.70;99361.34;5123246;27;20371;-83
2023/10/28 07:41:16;;;;;;;;;;;;;;;20.82;71.29;99361.56;5092070;28;20039;-84
2023/10/28 07:43:42;;;;;;;;;;;;;;;21.15;72.40;99361.38;5109598;27;19915;-84
2023/10/28 07:46:09;;;;;;;;;;;;;;;21.58;71.15;99358.19;5117416;27;19946;-84
2023/10/28 07:48:35;;;;;;;;;;;;;;;21.56;69.51;99362.34;5120382;27;19923;-84
2023/10/28 07:51:00;;;;;;;;;;;;;;;21.80;70.20;99362.00;5132735;27;20308;-83
2023/10/28 07:53:25;;;;;;;;;;;;;;;21.71;69.17;99367.38;5111666;28;20493;-84
2023/10/28 07:55:50;;;;;;;;;;;;;;;21.67;70.67;99375.31;5130725;27;19915;-84
2023/10/28 07:58:16;;;;;;;;;;;;;;;22.04;69.13;99377.94;5118464;27;20014;-84
2023/10/28 08:00:41;;;;;;;;;;;;;;;22.07;68.84;99378.13;5120272;27;20303;-84
2023/10/28 08:03:07;;;;;;;;;;;;;;;22.29;68.76;99375.66;5114802;27;19915;-85
2023/10/28 08:05:33;;;;;;;;;;;;;;;22.73;67.13;99382.06;5126857;27;19947;-84
2023/10/28 08:07:58;;;;;;;;;;;;;;;22.70;66.69;99386.22;5113310;27;19982;-83
2023/10/28 08:10:24;;;;;;;;;;;;;;;22.62;65.37;99387.78;5116216;27;19922;-83
2023/10/28 08:12:53;;;;;;;;;;;;;;;22.52;66.20;99403.59;5112337;27;19916;-84
2023/10/28 08:15:19;;;;;;;;;;;;;;;23.14;63.58;99400.69;5114068;27;19922;-86
2023/10/28 08:17:45;;;;;;;;;;;;;;;23.61;62.94;99392.66;5124521;27;19915;-84
2023/10/28 08:20:11;;;;;;;;;;;;;;;23.66;62.21;99397.97;5132207;27;19922;-83
2023/10/28 08:22:37;;;;;;;;;;;;;;;23.47;62.10;99390.13;5114606;27;19973;-84
2023/10/28 08:25:04;;;;;;;;;;;;;;;23.90;62.00;99396.66;5112735;27;19919;-84
2023/10/28 08:27:31;;;;;;;;;;;;;;;24.14;58.95;99401.56;5112571;28;19911;-84
2023/10/28 08:29:57;;;;;;;;;;;;;;;23.88;60.32;99398.91;5111453;28;19912;-84
2023/10/28 08:32:23;;;;;;;;;;;;;;;24.13;60.23;99404.59;5111445;28;19923;-84
2023/10/28 08:34:49;;;;;;;;;;;;;;;24.50;58.87;99407.69;5129227;27;19915;-83
2023/10/28 08:37:15;;;;;;;;;;;;;;;24.33;57.31;99409.31;5119097;27;19916;-83
2023/10/28 08:39:43;;;;;;;;;;;;;;;24.61;56.81;99409.72;5116664;27;20011;-83
2023/10/28 08:42:10;;;;;;;;;;;;;;;24.92;55.71;99416.75;5124318;27;19966;-84
2023/10/28 08:44:37;;;;;;;;;;;;;;;25.17;55.11;99419.63;5115382;27;19922;-84
2023/10/28 08:47:06;;;;;;;;;;;;;;;25.20;55.15;99422.50;5126330;27;19916;-84
2023/10/28 08:49:35;;;;;;;;;;;;;;;25.30;54.57;99417.81;5107691;28;19922;-84
2023/10/28 08:52:01;;;;;;;;;;;;;;;25.58;52.63;99418.88;5111160;28;19926;-84
2023/10/28 08:54:28;;;;;;;;;;;;;;;25.09;54.65;99420.50;5110290;27;20364;-84
2023/10/28 08:56:54;;;;;;;;;;;;;;;25.19;53.52;99426.38;5111835;27;19995;-82
2023/10/28 08:59:20;;;;;;;;;;;;;;;24.93;53.43;99421.09;5110522;28;19929;-83
2023/10/28 09:01:46;;;;;;;;;;;;;;;24.71;54.29;99419.44;5110762;28;19988;-84
2023/10/28 09:04:11;;;;;;;;;;;;;;;24.85;55.46;99420.00;5109436;27;19954;-84
2023/10/28 09:06:37;;;;;;;;;;;;;;;25.15;52.52;99417.25;5114511;27;19916;-86
2023/10/28 09:09:04;;;;;;;;;;;;;;;25.21;53.31;99407.78;5110442;28;19943;-84
2023/10/28 09:11:29;;;;;;;;;;;;;;;25.11;53.16;99410.06;5114327;27;20389;-85
2023/10/28 09:13:56;;;;;;;;;;;;;;;25.16;53.74;99410.66;5122722;27;19923;-82
2023/10/28 09:16:21;;;;;;;;;;;;;;;25.61;53.30;99407.25;5114779;27;20313;-84
2023/10/28 09:18:49;;;;;;;;;;;;;;;25.63;52.50;99399.53;5109951;28;19918;-84
2023/10/28 09:21:14;;;;;;;;;;;;;;;25.75;51.20;99404.25;5115282;27;19951;-83
2023/10/28 09:23:41;;;;;;;;;;;;;;;25.67;52.52;99399.66;5126658;27;20003;-83
2023/10/28 09:26:08;;;;;;;;;;;;;;;25.76;51.43;99396.84;5122614;27;20408;-84
2023/10/28 09:28:35;;;;;;;;;;;;;;;26.01;52.35;99400.44;5108686;28;19915;-85
2023/10/28 09:31:00;;;;;;;;;;;;;;;25.55;53.06;99394.94;5124987;27;20078;-84
2023/10/28 09:33:27;;;;;;;;;;;;;;;25.57;53.56;99389.94;5125448;27;20406;-85
2023/10/28 09:35:56;;;;;;;;;;;;;;;25.62;52.34;99389.75;5113788;27;20411;-86
2023/10/28 09:38:23;;;;;;;;;;;;;;;25.49;51.89;99388.09;5118617;27;19919;-84
2023/10/28 09:40:49;;;;;;;;;;;;;;;26.17;52.61;99392.41;5116021;27;19916;-85
2023/10/28 09:43:15;;;;;;;;;;;;;;;26.02;51.56;99383.72;5126440;27;19972;-85
2023/10/28 09:45:41;;;;;;;;;;;;;;;26.38;50.91;99384.13;5112226;27;19994;-85
2023/10/28 09:48:15;;;;;;;;;;;;;;;26.25;50.67;99380.56;5131497;27;19922;-85
2023/10/28 09:50:49;;;;;;;;;;;;;;;26.61;48.81;99382.53;5116169;27;19916;-85
2023/10/28 09:53:21;;;;;;;;;;;;;;;26.76;47.96;99382.97;5122738;27;19945;-84
2023/10/28 09:55:49;;;;;;;;;;;;;;;26.71;47.98;99381.28;5112353;27;19933;-85
2023/10/28 09:58:33;;;;;;;;;;;;;;;26.73;47.44;99384.47;5121064;27;19916;-84
2023/10/28 10:01:04;;;;;;;;;;;;;;;26.99;48.11;99386.00;5101717;28;20010;-82
2023/10/28 10:03:39;;;;;;;;;;;;;;;26.86;48.42;99386.03;5113468;27;19920;-84
2023/10/28 10:06:04;;;;;;;;;;;;;;;26.62;47.45;99386.06;5106848;28;19989;-84
2023/10/28 10:08:29;;;;;;;;;;;;;;;26.63;48.70;99379.47;5114676;28;19979;-84
2023/10/28 10:10:57;;;;;;;;;;;;;;;26.98;47.59;99371.53;5116164;27;19938;-86
2023/10/28 10:13:22;;;;;;;;;;;;;;;26.64;47.03;99375.56;5104534;28;19926;-84
2023/10/28 10:16:08;;;;;;;;;;;;;;;26.54;47.18;99374.09;5105927;28;20374;-84
2023/10/28 10:18:38;;;;;;;;;;;;;;;26.95;46.95;99379.63;5097413;28;19937;-85
2023/10/28 10:21:07;;;;;;;;;;;;;;;27.81;44.80;99366.44;5116968;28;19919;-84
2023/10/28 10:23:41;;;;;;;;;;;;;;;27.37;45.35;99360.16;5141583;27;20014;-84
2023/10/28 10:26:06;;;;;;;;;;;;;;;27.54;45.07;99350.81;5111240;28;19934;-84
2023/10/28 10:28:32;;;;;;;;;;;;;;;27.74;45.38;99349.00;5110275;28;19919;-84
2023/10/28 10:31:07;;;;;;;;;;;;;;;27.91;45.52;99359.69;5110806;28;20018;-85
2023/10/28 10:33:32;;;;;;;;;;;;;;;27.76;44.92;99358.47;5112454;28;20315;-85
2023/10/28 10:35:58;;;;;;;;;;;;;;;27.53;44.54;99355.50;5111652;27;19926;-84
2023/10/28 10:38:28;;;;;;;;;;;;;;;27.89;45.14;99351.00;5113387;27;19921;-84
2023/10/28 10:40:58;;;;;;;;;;;;;;;27.80;44.02;99344.88;5113913;28;19997;-84
2023/10/28 10:43:23;;;;;;;;;;;;;;;27.88;43.11;99343.94;5112632;27;20367;-84
2023/10/28 10:45:51;;;;;;;;;;;;;;;27.98;42.75;99343.41;5129699;27;19955;-84
2023/10/28 10:48:17;;;;;;;;;;;;;;;28.14;44.53;99339.88;5127482;27;19919;-84
2023/10/28 10:50:43;;;;;;;;;;;;;;;28.10;43.24;99339.78;5113298;27;19941;-85
2023/10/28 10:53:09;;;;;;;;;;;;;;;28.28;41.61;99340.22;5117600;27;19960;-84
2023/10/28 10:55:34;;;;;;;;;;;;;;;28.69;40.38;99338.03;5122144;27;19915;-83
2023/10/28 10:57:59;;;;;;;;;;;;;;;28.19;42.33;99334.91;5117289;27;19915;-84
2023/10/28 11:00:25;;;;;;;;;;;;;;;28.20;41.60;99333.75;5112258;28;20320;-84
2023/10/28 11:02:50;;;;;;;;;;;;;;;28.32;41.66;99341.09;5116011;27;20066;-83
2023/10/28 11:05:17;;;;;;;;;;;;;;;28.45;41.73;99334.34;5117133;27;20303;-84
2023/10/28 11:07:43;;;;;;;;;;;;;;;28.79;40.59;99340.22;5108334;28;19931;-84
2023/10/28 11:10:08;;;;;;;;;;;;;;;28.74;40.24;99340.50;5112218;28;19916;-85
2023/10/28 11:12:34;;;;;;;;;;;;;;;28.67;39.37;99337.59;5112942;28;19916;-84
2023/10/28 11:14:59;;;;;;;;;;;;;;;29.06;38.73;99332.16;5111510;27;19939;-85
2023/10/28 11:17:25;;;;;;;;;;;;;;;29.50;38.36;99331.06;5118295;27;19916;-84
2023/10/28 11:19:50;;;;;;;;;;;;;;;29.73;36.57;99334.66;5125089;27;19966;-85
2023/10/28 11:22:16;;;;;;;;;;;;;;;29.76;36.28;99338.63;5113363;27;19911;-86
2023/10/28 11:24:42;;;;;;;;;;;;;;;29.69;36.26;99332.94;5127901;27;19980;-85
2023/10/28 11:27:07;;;;;;;;;;;;;;;29.62;35.83;99328.13;5117145;27;20010;-84
2023/10/28 11:29:37;;;;;;;;;;;;;;;30.32;35.51;99339.94;5112820;27;19915;-84
2023/10/28 11:32:09;;;;;;;;;;;;;;;29.38;35.64;99329.25;5112656;28;20016;-84
2023/10/28 11:34:38;;;;;;;;;;;;;;;29.94;35.40;99331.47;5128076;27;19928;-84
2023/10/28 11:37:03;;;;;;;;;;;;;;;30.15;34.96;99332.97;5112448;28;19916;-85
2023/10/28 11:39:33;;;;;;;;;;;;;;;30.53;33.65;99326.53;5111093;28;19919;-84
2023/10/28 11:42:08;;;;;;;;;;;;;;;29.80;34.67;99326.53;5109762;28;20352;-84
2023/10/28 11:44:33;;;;;;;;;;;;;;;30.77;33.57;99328.03;5112874;28;20000;-85
2023/10/28 11:46:59;;;;;;;;;;;;;;;30.95;33.60;99319.22;5112918;28;19954;-84
2023/10/28 11:49:24;;;;;;;;;;;;;;;31.06;33.41;99324.84;5115765;27;19919;-84
2023/10/28 11:51:50;;;;;;;;;;;;;;;30.68;33.80;99316.50;5112906;28;19919;-85
2023/10/28 11:54:17;;;;;;;;;;;;;;;29.97;33.74;99319.72;5119938;27;20299;-85
2023/10/28 11:56:43;;;;;;;;;;;;;;;30.59;33.11;99319.53;5125272;27;19929;-86
2023/10/28 11:59:09;;;;;;;;;;;;;;;30.33;33.24;99312.06;5117270;28;19916;-86
2023/10/28 12:01:36;;;;;;;;;;;;;;;30.22;32.82;99316.59;5116799;27;19965;-84
2023/10/28 12:04:03;;;;;;;;;;;;;;;30.36;32.66;99297.59;5115013;27;19923;-85
2023/10/28 12:06:29;;;;;;;;;;;;;;;30.55;32.63;99304.16;5137593;27;19923;-84
2023/10/28 12:08:58;;;;;;;;;;;;;;;31.14;30.69;99277.75;5128187;27;19920;-85
2023/10/28 12:11:23;;;;;;;;;;;;;;;31.41;31.42;99296.94;5142275;27;19915;-85
2023/10/28 12:13:48;;;;;;;;;;;;;;;31.62;30.46;99305.41;5134059;27;19920;-85
2023/10/28 12:16:15;;;;;;;;;;;;;;;31.54;31.70;99295.50;5116669;27;19916;-84
2023/10/28 12:18:40;;;;;;;;;;;;;;;31.36;31.17;99308.28;5123765;27;19942;-84
2023/10/28 12:21:06;;;;;;;;;;;;;;;31.99;30.94;99296.31;5128052;27;19916;-85
2023/10/28 12:23:31;;;;;;;;;;;;;;;31.28;30.59;99309.38;5117205;28;20520;-84
2023/10/28 12:25:59;;;;;;;;;;;;;;;30.88;30.59;99297.91;5151684;27;19938;-83
2023/10/28 12:28:24;;;;;;;;;;;;;;;31.93;30.42;99300.56;5134916;27;19971;-84
2023/10/28 12:30:50;;;;;;;;;;;;;;;31.05;30.82;99310.28;5121980;28;20064;-85
2023/10/28 12:33:19;;;;;;;;;;;;;;;31.60;30.27;99305.00;5134880;27;19937;-85
2023/10/28 12:35:44;;;;;;;;;;;;;;;32.13;29.75;99300.34;5137557;27;19919;-84
2023/10/28 12:38:10;;;;;;;;;;;;;;;31.97;29.72;99295.09;5123273;27;19962;-84
2023/10/28 12:40:35;;;;;;;;;;;;;;;31.88;29.61;99298.16;5121078;28;19915;-85